sensor_id;sensor_type;location;lat;lon;timestamp;P1;durP1;ratioP1;P2;durP2;ratioP2
77304;SDS011;66364;52.622;7.746;2023-04-03T00:01:41;2.08;;;1.75;;
77304;SDS011;66364;52.622;7.746;2023-04-03T00:03:43;7.83;;;2.35;;
77304;SDS011;66364;52.622;7.746;2023-04-03T00:05:44;2.70;;;1.87;;
77304;SDS011;66364;52.622;7.746;2023-04-03T00:07:46;3.00;;;1.55;;
77304;SDS011;66364;52.622;7.746;2023-04-03T00:09:47;4.10;;;2.10;;
77304;SDS011;66364;52.622;7.746;2023-04-03T00:11:47;2.53;;;1.80;;
77304;SDS011;66364;52.622;7.746;2023-04-03T00:13:48;5.13;;;2.20;;
77304;SDS011;66364;52.622;7.746;2023-04-03T00:15:50;1.98;;;1.77;;
77304;SDS011;66364;52.622;7.746;2023-04-03T00:17:51;4.75;;;2.42;;
77304;SDS011;66364;52.622;7.746;2023-04-03T00:19:52;5.10;;;2.43;;
77304;SDS011;66364;52.622;7.746;2023-04-03T00:21:53;2.20;;;1.80;;
77304;SDS011;66364;52.622;7.746;2023-04-03T00:23:54;2.17;;;1.83;;
77304;SDS011;66364;52.622;7.746;2023-04-03T00:25:55;5.30;;;2.17;;
77304;SDS011;66364;52.622;7.746;2023-04-03T00:27:58;3.67;;;2.22;;
77304;SDS011;66364;52.622;7.746;2023-04-03T00:29:59;5.85;;;2.87;;
77304;SDS011;66364;52.622;7.746;2023-04-03T00:32:00;2.80;;;2.00;;
77304;SDS011;66364;52.622;7.746;2023-04-03T00:34:01;4.07;;;2.17;;
77304;SDS011;66364;52.622;7.746;2023-04-03T00:36:07;1.82;;;1.52;;
77304;SDS011;66364;52.622;7.746;2023-04-03T00:38:06;3.17;;;2.08;;
77304;SDS011;66364;52.622;7.746;2023-04-03T00:40:07;4.25;;;2.95;;
77304;SDS011;66364;52.622;7.746;2023-04-03T00:42:10;5.72;;;2.25;;
77304;SDS011;66364;52.622;7.746;2023-04-03T00:46:35;3.67;;;2.00;;
77304;SDS011;66364;52.622;7.746;2023-04-03T00:48:44;3.03;;;1.87;;
77304;SDS011;66364;52.622;7.746;2023-04-03T00:50:46;3.00;;;2.20;;
77304;SDS011;66364;52.622;7.746;2023-04-03T00:52:48;5.92;;;2.27;;
77304;SDS011;66364;52.622;7.746;2023-04-03T00:54:50;2.47;;;2.20;;
77304;SDS011;66364;52.622;7.746;2023-04-03T00:56:54;4.08;;;2.00;;
77304;SDS011;66364;52.622;7.746;2023-04-03T00:58:59;3.75;;;1.98;;
77304;SDS011;66364;52.622;7.746;2023-04-03T01:01:05;2.42;;;1.90;;
77304;SDS011;66364;52.622;7.746;2023-04-03T01:03:08;2.15;;;1.75;;
77304;SDS011;66364;52.622;7.746;2023-04-03T01:05:09;4.77;;;1.67;;
77304;SDS011;66364;52.622;7.746;2023-04-03T01:07:10;3.40;;;2.17;;
77304;SDS011;66364;52.622;7.746;2023-04-03T01:09:18;2.58;;;2.33;;
77304;SDS011;66364;52.622;7.746;2023-04-03T01:11:19;3.15;;;1.75;;
77304;SDS011;66364;52.622;7.746;2023-04-03T01:15:28;3.42;;;2.35;;
77304;SDS011;66364;52.622;7.746;2023-04-03T01:19:34;3.90;;;1.92;;
77304;SDS011;66364;52.622;7.746;2023-04-03T01:25:59;3.25;;;2.33;;
77304;SDS011;66364;52.622;7.746;2023-04-03T01:28:00;2.40;;;1.80;;
77304;SDS011;66364;52.622;7.746;2023-04-03T01:30:01;7.13;;;2.30;;
77304;SDS011;66364;52.622;7.746;2023-04-03T01:32:03;7.20;;;2.25;;
77304;SDS011;66364;52.622;7.746;2023-04-03T01:34:04;2.17;;;1.82;;
77304;SDS011;66364;52.622;7.746;2023-04-03T01:36:06;2.80;;;1.75;;
77304;SDS011;66364;52.622;7.746;2023-04-03T01:38:07;4.33;;;2.00;;
77304;SDS011;66364;52.622;7.746;2023-04-03T01:40:08;4.85;;;2.00;;
77304;SDS011;66364;52.622;7.746;2023-04-03T01:42:10;3.30;;;1.85;;
77304;SDS011;66364;52.622;7.746;2023-04-03T01:44:11;5.87;;;1.80;;
77304;SDS011;66364;52.622;7.746;2023-04-03T01:46:12;4.83;;;2.58;;
77304;SDS011;66364;52.622;7.746;2023-04-03T01:48:13;3.77;;;2.00;;
77304;SDS011;66364;52.622;7.746;2023-04-03T01:50:14;3.10;;;2.00;;
77304;SDS011;66364;52.622;7.746;2023-04-03T01:52:15;3.08;;;1.70;;
77304;SDS011;66364;52.622;7.746;2023-04-03T01:54:16;2.60;;;1.73;;
77304;SDS011;66364;52.622;7.746;2023-04-03T01:56:17;5.55;;;1.95;;
77304;SDS011;66364;52.622;7.746;2023-04-03T01:58:18;2.80;;;2.53;;
77304;SDS011;66364;52.622;7.746;2023-04-03T02:00:19;5.53;;;2.30;;
77304;SDS011;66364;52.622;7.746;2023-04-03T02:02:20;3.27;;;2.37;;
77304;SDS011;66364;52.622;7.746;2023-04-03T02:04:21;2.47;;;2.03;;
77304;SDS011;66364;52.622;7.746;2023-04-03T02:06:22;2.17;;;1.80;;
77304;SDS011;66364;52.622;7.746;2023-04-03T02:08:23;3.23;;;1.67;;
77304;SDS011;66364;52.622;7.746;2023-04-03T02:10:25;2.45;;;1.85;;
77304;SDS011;66364;52.622;7.746;2023-04-03T02:12:25;2.77;;;1.93;;
77304;SDS011;66364;52.622;7.746;2023-04-03T02:14:26;2.87;;;2.25;;
77304;SDS011;66364;52.622;7.746;2023-04-03T02:16:27;5.87;;;2.33;;
77304;SDS011;66364;52.622;7.746;2023-04-03T02:18:28;5.72;;;2.25;;
77304;SDS011;66364;52.622;7.746;2023-04-03T02:20:30;5.97;;;2.30;;
77304;SDS011;66364;52.622;7.746;2023-04-03T02:22:32;3.90;;;1.70;;
77304;SDS011;66364;52.622;7.746;2023-04-03T02:24:33;3.08;;;2.10;;
77304;SDS011;66364;52.622;7.746;2023-04-03T02:26:34;4.70;;;1.83;;
77304;SDS011;66364;52.622;7.746;2023-04-03T02:28:35;5.10;;;2.02;;
77304;SDS011;66364;52.622;7.746;2023-04-03T02:30:36;6.03;;;2.98;;
77304;SDS011;66364;52.622;7.746;2023-04-03T02:34:42;4.97;;;2.52;;
77304;SDS011;66364;52.622;7.746;2023-04-03T02:36:43;3.90;;;2.20;;
77304;SDS011;66364;52.622;7.746;2023-04-03T02:38:44;3.00;;;1.90;;
77304;SDS011;66364;52.622;7.746;2023-04-03T02:40:45;3.22;;;1.50;;
77304;SDS011;66364;52.622;7.746;2023-04-03T02:42:46;5.00;;;2.77;;
77304;SDS011;66364;52.622;7.746;2023-04-03T02:44:47;6.80;;;2.20;;
77304;SDS011;66364;52.622;7.746;2023-04-03T02:46:48;4.42;;;3.02;;
77304;SDS011;66364;52.622;7.746;2023-04-03T02:48:50;3.33;;;1.90;;
77304;SDS011;66364;52.622;7.746;2023-04-03T02:50:50;5.80;;;2.47;;
77304;SDS011;66364;52.622;7.746;2023-04-03T02:52:52;3.33;;;1.92;;
77304;SDS011;66364;52.622;7.746;2023-04-03T02:54:53;3.05;;;1.77;;
77304;SDS011;66364;52.622;7.746;2023-04-03T02:56:54;3.43;;;2.40;;
77304;SDS011;66364;52.622;7.746;2023-04-03T02:58:55;4.53;;;2.10;;
77304;SDS011;66364;52.622;7.746;2023-04-03T03:00:56;3.10;;;2.43;;
77304;SDS011;66364;52.622;7.746;2023-04-03T03:02:57;5.10;;;2.92;;
77304;SDS011;66364;52.622;7.746;2023-04-03T03:04:58;3.13;;;1.93;;
77304;SDS011;66364;52.622;7.746;2023-04-03T03:06:59;8.33;;;3.00;;
77304;SDS011;66364;52.622;7.746;2023-04-03T03:09:00;2.83;;;1.80;;
77304;SDS011;66364;52.622;7.746;2023-04-03T03:11:01;2.77;;;2.10;;
77304;SDS011;66364;52.622;7.746;2023-04-03T03:13:03;7.00;;;3.08;;
77304;SDS011;66364;52.622;7.746;2023-04-03T03:15:04;7.35;;;2.22;;
77304;SDS011;66364;52.622;7.746;2023-04-03T03:17:06;4.37;;;2.42;;
77304;SDS011;66364;52.622;7.746;2023-04-03T03:19:07;3.67;;;2.30;;
77304;SDS011;66364;52.622;7.746;2023-04-03T03:21:09;3.45;;;1.95;;
77304;SDS011;66364;52.622;7.746;2023-04-03T03:23:10;3.30;;;2.12;;
77304;SDS011;66364;52.622;7.746;2023-04-03T03:25:11;3.37;;;2.62;;
77304;SDS011;66364;52.622;7.746;2023-04-03T03:27:13;4.17;;;2.30;;
77304;SDS011;66364;52.622;7.746;2023-04-03T03:29:14;3.23;;;2.33;;
77304;SDS011;66364;52.622;7.746;2023-04-03T03:31:15;4.58;;;2.40;;
77304;SDS011;66364;52.622;7.746;2023-04-03T03:33:16;2.65;;;2.30;;
77304;SDS011;66364;52.622;7.746;2023-04-03T03:35:18;4.08;;;2.20;;
77304;SDS011;66364;52.622;7.746;2023-04-03T03:37:19;3.15;;;2.90;;
77304;SDS011;66364;52.622;7.746;2023-04-03T03:39:20;3.55;;;2.20;;
77304;SDS011;66364;52.622;7.746;2023-04-03T03:41:22;2.85;;;2.20;;
77304;SDS011;66364;52.622;7.746;2023-04-03T03:43:23;2.75;;;2.10;;
77304;SDS011;66364;52.622;7.746;2023-04-03T03:45:24;2.35;;;2.00;;
77304;SDS011;66364;52.622;7.746;2023-04-03T03:47:25;3.58;;;2.33;;
77304;SDS011;66364;52.622;7.746;2023-04-03T03:49:26;3.65;;;2.37;;
77304;SDS011;66364;52.622;7.746;2023-04-03T03:51:27;6.40;;;2.70;;
77304;SDS011;66364;52.622;7.746;2023-04-03T03:53:28;4.15;;;2.05;;
77304;SDS011;66364;52.622;7.746;2023-04-03T03:55:29;4.78;;;2.52;;
77304;SDS011;66364;52.622;7.746;2023-04-03T03:57:30;3.15;;;2.27;;
77304;SDS011;66364;52.622;7.746;2023-04-03T03:59:31;2.37;;;2.20;;
77304;SDS011;66364;52.622;7.746;2023-04-03T04:01:32;3.20;;;2.20;;
77304;SDS011;66364;52.622;7.746;2023-04-03T04:03:33;2.37;;;2.05;;
77304;SDS011;66364;52.622;7.746;2023-04-03T04:05:34;8.68;;;3.25;;
77304;SDS011;66364;52.622;7.746;2023-04-03T04:07:35;7.63;;;2.43;;
77304;SDS011;66364;52.622;7.746;2023-04-03T04:09:36;3.75;;;2.42;;
77304;SDS011;66364;52.622;7.746;2023-04-03T04:11:37;3.30;;;2.07;;
77304;SDS011;66364;52.622;7.746;2023-04-03T04:13:37;4.87;;;2.50;;
77304;SDS011;66364;52.622;7.746;2023-04-03T04:15:38;5.23;;;2.20;;
77304;SDS011;66364;52.622;7.746;2023-04-03T04:17:39;2.90;;;2.10;;
77304;SDS011;66364;52.622;7.746;2023-04-03T04:19:40;4.60;;;2.70;;
77304;SDS011;66364;52.622;7.746;2023-04-03T04:21:46;5.33;;;2.33;;
77304;SDS011;66364;52.622;7.746;2023-04-03T04:23:47;3.12;;;2.50;;
77304;SDS011;66364;52.622;7.746;2023-04-03T04:25:48;4.60;;;2.22;;
77304;SDS011;66364;52.622;7.746;2023-04-03T04:27:49;3.80;;;2.45;;
77304;SDS011;66364;52.622;7.746;2023-04-03T04:29:50;7.17;;;2.33;;
77304;SDS011;66364;52.622;7.746;2023-04-03T04:31:52;2.37;;;2.17;;
77304;SDS011;66364;52.622;7.746;2023-04-03T04:33:54;2.17;;;2.05;;
77304;SDS011;66364;52.622;7.746;2023-04-03T04:35:54;4.73;;;2.50;;
77304;SDS011;66364;52.622;7.746;2023-04-03T04:37:55;5.15;;;2.47;;
77304;SDS011;66364;52.622;7.746;2023-04-03T04:39:56;3.55;;;2.60;;
77304;SDS011;66364;52.622;7.746;2023-04-03T04:41:57;4.55;;;2.30;;
77304;SDS011;66364;52.622;7.746;2023-04-03T04:43:58;4.20;;;3.00;;
77304;SDS011;66364;52.622;7.746;2023-04-03T04:46:09;6.40;;;3.25;;
77304;SDS011;66364;52.622;7.746;2023-04-03T04:48:14;2.85;;;2.42;;
77304;SDS011;66364;52.622;7.746;2023-04-03T04:50:16;5.00;;;2.40;;
77304;SDS011;66364;52.622;7.746;2023-04-03T04:52:17;4.97;;;3.08;;
77304;SDS011;66364;52.622;7.746;2023-04-03T04:54:18;5.10;;;2.57;;
77304;SDS011;66364;52.622;7.746;2023-04-03T04:56:19;3.90;;;2.72;;
77304;SDS011;66364;52.622;7.746;2023-04-03T04:58:20;3.50;;;2.10;;
77304;SDS011;66364;52.622;7.746;2023-04-03T05:00:21;3.95;;;2.77;;
77304;SDS011;66364;52.622;7.746;2023-04-03T05:02:22;3.12;;;2.42;;
77304;SDS011;66364;52.622;7.746;2023-04-03T05:04:23;2.47;;;2.27;;
77304;SDS011;66364;52.622;7.746;2023-04-03T05:06:24;5.25;;;3.25;;
77304;SDS011;66364;52.622;7.746;2023-04-03T05:08:25;5.65;;;2.80;;
77304;SDS011;66364;52.622;7.746;2023-04-03T05:10:27;6.00;;;2.70;;
77304;SDS011;66364;52.622;7.746;2023-04-03T05:12:28;3.87;;;2.58;;
77304;SDS011;66364;52.622;7.746;2023-04-03T05:14:29;3.87;;;2.72;;
77304;SDS011;66364;52.622;7.746;2023-04-03T05:16:31;2.95;;;2.70;;
77304;SDS011;66364;52.622;7.746;2023-04-03T05:18:31;5.33;;;2.33;;
77304;SDS011;66364;52.622;7.746;2023-04-03T05:20:33;7.12;;;2.33;;
77304;SDS011;66364;52.622;7.746;2023-04-03T05:22:34;4.83;;;3.02;;
77304;SDS011;66364;52.622;7.746;2023-04-03T05:24:35;2.60;;;2.33;;
77304;SDS011;66364;52.622;7.746;2023-04-03T05:26:36;6.12;;;2.85;;
77304;SDS011;66364;52.622;7.746;2023-04-03T05:28:37;4.78;;;3.58;;
77304;SDS011;66364;52.622;7.746;2023-04-03T05:30:44;4.85;;;3.20;;
77304;SDS011;66364;52.622;7.746;2023-04-03T05:32:45;7.50;;;3.35;;
77304;SDS011;66364;52.622;7.746;2023-04-03T05:34:47;8.15;;;3.10;;
77304;SDS011;66364;52.622;7.746;2023-04-03T05:36:48;6.03;;;3.47;;
77304;SDS011;66364;52.622;7.746;2023-04-03T05:38:49;3.87;;;3.45;;
77304;SDS011;66364;52.622;7.746;2023-04-03T05:40:50;5.75;;;3.30;;
77304;SDS011;66364;52.622;7.746;2023-04-03T05:42:51;4.03;;;3.43;;
77304;SDS011;66364;52.622;7.746;2023-04-03T05:44:52;5.28;;;3.20;;
77304;SDS011;66364;52.622;7.746;2023-04-03T05:46:54;7.90;;;3.60;;
77304;SDS011;66364;52.622;7.746;2023-04-03T05:48:55;5.33;;;3.98;;
77304;SDS011;66364;52.622;7.746;2023-04-03T05:50:56;8.55;;;3.72;;
77304;SDS011;66364;52.622;7.746;2023-04-03T05:52:57;5.05;;;3.25;;
77304;SDS011;66364;52.622;7.746;2023-04-03T05:55:00;6.70;;;3.95;;
77304;SDS011;66364;52.622;7.746;2023-04-03T05:57:01;4.13;;;3.13;;
77304;SDS011;66364;52.622;7.746;2023-04-03T05:59:02;3.58;;;2.70;;
77304;SDS011;66364;52.622;7.746;2023-04-03T06:01:03;7.65;;;2.50;;
77304;SDS011;66364;52.622;7.746;2023-04-03T06:03:05;10.05;;;3.55;;
77304;SDS011;66364;52.622;7.746;2023-04-03T06:05:06;5.05;;;4.10;;
77304;SDS011;66364;52.622;7.746;2023-04-03T06:07:10;15.38;;;3.17;;
77304;SDS011;66364;52.622;7.746;2023-04-03T06:09:12;3.98;;;2.60;;
77304;SDS011;66364;52.622;7.746;2023-04-03T06:11:13;6.70;;;3.22;;
77304;SDS011;66364;52.622;7.746;2023-04-03T06:13:14;5.77;;;2.93;;
77304;SDS011;66364;52.622;7.746;2023-04-03T06:15:15;5.30;;;2.70;;
77304;SDS011;66364;52.622;7.746;2023-04-03T06:17:16;9.28;;;3.12;;
77304;SDS011;66364;52.622;7.746;2023-04-03T06:19:18;4.97;;;3.20;;
77304;SDS011;66364;52.622;7.746;2023-04-03T06:21:19;5.20;;;2.93;;
77304;SDS011;66364;52.622;7.746;2023-04-03T06:23:20;5.00;;;2.40;;
77304;SDS011;66364;52.622;7.746;2023-04-03T06:25:21;2.40;;;1.80;;
77304;SDS011;66364;52.622;7.746;2023-04-03T06:27:22;3.98;;;3.10;;
77304;SDS011;66364;52.622;7.746;2023-04-03T06:29:23;6.08;;;3.00;;
77304;SDS011;66364;52.622;7.746;2023-04-03T06:31:24;4.97;;;2.52;;
77304;SDS011;66364;52.622;7.746;2023-04-03T06:33:25;7.33;;;2.20;;
77304;SDS011;66364;52.622;7.746;2023-04-03T06:35:26;2.27;;;1.93;;
77304;SDS011;66364;52.622;7.746;2023-04-03T06:37:27;3.10;;;2.60;;
77304;SDS011;66364;52.622;7.746;2023-04-03T06:39:28;3.33;;;3.00;;
77304;SDS011;66364;52.622;7.746;2023-04-03T06:41:29;4.77;;;2.37;;
77304;SDS011;66364;52.622;7.746;2023-04-03T06:43:30;2.47;;;2.27;;
77304;SDS011;66364;52.622;7.746;2023-04-03T06:45:31;5.83;;;2.70;;
77304;SDS011;66364;52.622;7.746;2023-04-03T06:47:32;5.12;;;1.98;;
77304;SDS011;66364;52.622;7.746;2023-04-03T06:49:33;3.87;;;1.90;;
77304;SDS011;66364;52.622;7.746;2023-04-03T06:51:35;4.33;;;1.60;;
77304;SDS011;66364;52.622;7.746;2023-04-03T06:53:37;6.08;;;2.70;;
77304;SDS011;66364;52.622;7.746;2023-04-03T06:55:38;6.60;;;2.47;;
77304;SDS011;66364;52.622;7.746;2023-04-03T06:57:38;4.10;;;1.83;;
77304;SDS011;66364;52.622;7.746;2023-04-03T06:59:40;3.87;;;2.20;;
77304;SDS011;66364;52.622;7.746;2023-04-03T07:01:41;3.40;;;1.90;;
77304;SDS011;66364;52.622;7.746;2023-04-03T07:03:43;3.77;;;1.82;;
77304;SDS011;66364;52.622;7.746;2023-04-03T07:05:44;6.67;;;2.25;;
77304;SDS011;66364;52.622;7.746;2023-04-03T07:07:45;3.93;;;2.13;;
77304;SDS011;66364;52.622;7.746;2023-04-03T07:09:45;4.73;;;3.03;;
77304;SDS011;66364;52.622;7.746;2023-04-03T07:11:47;1.77;;;1.62;;
77304;SDS011;66364;52.622;7.746;2023-04-03T07:13:48;5.27;;;1.93;;
77304;SDS011;66364;52.622;7.746;2023-04-03T07:15:49;4.10;;;2.02;;
77304;SDS011;66364;52.622;7.746;2023-04-03T07:17:50;4.27;;;2.37;;
77304;SDS011;66364;52.622;7.746;2023-04-03T07:19:51;5.60;;;2.77;;
77304;SDS011;66364;52.622;7.746;2023-04-03T07:21:52;4.12;;;1.75;;
77304;SDS011;66364;52.622;7.746;2023-04-03T07:23:53;3.83;;;2.23;;
77304;SDS011;66364;52.622;7.746;2023-04-03T07:25:55;2.60;;;2.00;;
77304;SDS011;66364;52.622;7.746;2023-04-03T07:27:56;8.83;;;3.15;;
77304;SDS011;66364;52.622;7.746;2023-04-03T07:29:57;16.65;;;5.67;;
77304;SDS011;66364;52.622;7.746;2023-04-03T07:31:58;9.03;;;5.13;;
77304;SDS011;66364;52.622;7.746;2023-04-03T07:33:59;5.00;;;2.83;;
77304;SDS011;66364;52.622;7.746;2023-04-03T07:36:00;4.33;;;1.37;;
77304;SDS011;66364;52.622;7.746;2023-04-03T07:38:01;4.80;;;1.40;;
77304;SDS011;66364;52.622;7.746;2023-04-03T07:40:02;2.12;;;1.92;;
77304;SDS011;66364;52.622;7.746;2023-04-03T07:42:04;1.60;;;1.50;;
77304;SDS011;66364;52.622;7.746;2023-04-03T07:44:05;6.75;;;2.52;;
77304;SDS011;66364;52.622;7.746;2023-04-03T07:46:06;4.50;;;1.80;;
77304;SDS011;66364;52.622;7.746;2023-04-03T07:48:08;4.40;;;2.20;;
77304;SDS011;66364;52.622;7.746;2023-04-03T07:50:12;2.80;;;1.27;;
77304;SDS011;66364;52.622;7.746;2023-04-03T07:52:13;5.20;;;1.80;;
77304;SDS011;66364;52.622;7.746;2023-04-03T07:54:15;4.35;;;1.92;;
77304;SDS011;66364;52.622;7.746;2023-04-03T07:56:16;10.58;;;1.80;;
77304;SDS011;66364;52.622;7.746;2023-04-03T07:58:17;5.03;;;1.57;;
77304;SDS011;66364;52.622;7.746;2023-04-03T08:00:19;10.15;;;1.60;;
77304;SDS011;66364;52.622;7.746;2023-04-03T08:02:20;2.05;;;1.20;;
77304;SDS011;66364;52.622;7.746;2023-04-03T08:04:21;4.40;;;1.57;;
77304;SDS011;66364;52.622;7.746;2023-04-03T08:06:23;2.50;;;1.60;;
77304;SDS011;66364;52.622;7.746;2023-04-03T08:08:24;2.90;;;1.45;;
77304;SDS011;66364;52.622;7.746;2023-04-03T08:10:25;5.00;;;1.33;;
77304;SDS011;66364;52.622;7.746;2023-04-03T08:12:26;2.52;;;1.90;;
77304;SDS011;66364;52.622;7.746;2023-04-03T08:14:27;2.80;;;1.53;;
77304;SDS011;66364;52.622;7.746;2023-04-03T08:16:34;1.60;;;0.90;;
77304;SDS011;66364;52.622;7.746;2023-04-03T08:18:36;2.37;;;1.50;;
77304;SDS011;66364;52.622;7.746;2023-04-03T08:20:37;3.23;;;1.40;;
77304;SDS011;66364;52.622;7.746;2023-04-03T08:22:39;3.65;;;1.00;;
77304;SDS011;66364;52.622;7.746;2023-04-03T08:24:40;4.03;;;1.50;;
77304;SDS011;66364;52.622;7.746;2023-04-03T08:26:42;3.22;;;1.40;;
77304;SDS011;66364;52.622;7.746;2023-04-03T08:28:43;3.95;;;1.37;;
77304;SDS011;66364;52.622;7.746;2023-04-03T08:30:44;2.22;;;1.25;;
77304;SDS011;66364;52.622;7.746;2023-04-03T08:32:45;3.12;;;1.60;;
77304;SDS011;66364;52.622;7.746;2023-04-03T08:34:47;6.55;;;2.33;;
77304;SDS011;66364;52.622;7.746;2023-04-03T08:36:48;7.00;;;2.30;;
77304;SDS011;66364;52.622;7.746;2023-04-03T08:38:49;3.60;;;1.27;;
77304;SDS011;66364;52.622;7.746;2023-04-03T08:41:02;3.98;;;1.65;;
77304;SDS011;66364;52.622;7.746;2023-04-03T08:45:47;6.92;;;1.85;;
77304;SDS011;66364;52.622;7.746;2023-04-03T08:47:52;1.98;;;1.00;;
77304;SDS011;66364;52.622;7.746;2023-04-03T08:49:58;2.15;;;1.25;;
77304;SDS011;66364;52.622;7.746;2023-04-03T08:52:10;1.60;;;1.10;;
77304;SDS011;66364;52.622;7.746;2023-04-03T08:54:20;3.47;;;1.80;;
77304;SDS011;66364;52.622;7.746;2023-04-03T08:56:20;2.60;;;1.17;;
77304;SDS011;66364;52.622;7.746;2023-04-03T08:58:22;1.82;;;1.30;;
77304;SDS011;66364;52.622;7.746;2023-04-03T09:00:34;3.33;;;1.85;;
77304;SDS011;66364;52.622;7.746;2023-04-03T09:02:55;2.95;;;1.10;;
77304;SDS011;66364;52.622;7.746;2023-04-03T09:04:54;5.22;;;1.50;;
77304;SDS011;66364;52.622;7.746;2023-04-03T09:06:57;3.62;;;1.35;;
77304;SDS011;66364;52.622;7.746;2023-04-03T09:11:25;3.37;;;1.57;;
77304;SDS011;66364;52.622;7.746;2023-04-03T09:13:57;3.87;;;1.27;;
77304;SDS011;66364;52.622;7.746;2023-04-03T09:16:02;2.00;;;1.10;;
77304;SDS011;66364;52.622;7.746;2023-04-03T09:18:15;2.58;;;1.40;;
77304;SDS011;66364;52.622;7.746;2023-04-03T09:22:48;3.05;;;1.20;;
77304;SDS011;66364;52.622;7.746;2023-04-03T09:24:58;2.42;;;1.05;;
77304;SDS011;66364;52.622;7.746;2023-04-03T09:26:59;1.22;;;1.02;;
77304;SDS011;66364;52.622;7.746;2023-04-03T09:29:06;3.45;;;1.17;;
77304;SDS011;66364;52.622;7.746;2023-04-03T09:31:14;4.72;;;1.75;;
77304;SDS011;66364;52.622;7.746;2023-04-03T09:33:19;3.12;;;1.27;;
77304;SDS011;66364;52.622;7.746;2023-04-03T09:35:32;2.40;;;0.90;;
77304;SDS011;66364;52.622;7.746;2023-04-03T09:37:41;4.15;;;1.30;;
77304;SDS011;66364;52.622;7.746;2023-04-03T09:39:51;6.35;;;1.35;;
77304;SDS011;66364;52.622;7.746;2023-04-03T09:41:58;2.85;;;1.05;;
77304;SDS011;66364;52.622;7.746;2023-04-03T09:44:30;2.65;;;1.10;;
77304;SDS011;66364;52.622;7.746;2023-04-03T09:48:23;1.92;;;1.25;;
77304;SDS011;66364;52.622;7.746;2023-04-03T09:50:25;4.08;;;1.37;;
77304;SDS011;66364;52.622;7.746;2023-04-03T09:52:26;3.50;;;0.83;;
77304;SDS011;66364;52.622;7.746;2023-04-03T09:54:35;1.70;;;1.00;;
77304;SDS011;66364;52.622;7.746;2023-04-03T09:56:37;2.37;;;1.00;;
77304;SDS011;66364;52.622;7.746;2023-04-03T09:58:39;11.73;;;2.20;;
77304;SDS011;66364;52.622;7.746;2023-04-03T10:00:40;2.12;;;1.10;;
77304;SDS011;66364;52.622;7.746;2023-04-03T10:02:41;2.07;;;1.13;;
77304;SDS011;66364;52.622;7.746;2023-04-03T10:04:42;1.40;;;0.82;;
77304;SDS011;66364;52.622;7.746;2023-04-03T10:06:47;2.60;;;1.40;;
77304;SDS011;66364;52.622;7.746;2023-04-03T10:09:00;4.95;;;2.00;;
77304;SDS011;66364;52.622;7.746;2023-04-03T10:13:15;2.67;;;1.22;;
77304;SDS011;66364;52.622;7.746;2023-04-03T10:15:29;2.37;;;0.90;;
77304;SDS011;66364;52.622;7.746;2023-04-03T10:19:58;3.05;;;1.62;;
77304;SDS011;66364;52.622;7.746;2023-04-03T10:22:16;1.75;;;1.32;;
77304;SDS011;66364;52.622;7.746;2023-04-03T10:24:28;3.83;;;1.22;;
77304;SDS011;66364;52.622;7.746;2023-04-03T10:26:45;1.50;;;0.90;;
77304;SDS011;66364;52.622;7.746;2023-04-03T10:31:37;2.52;;;1.20;;
77304;SDS011;66364;52.622;7.746;2023-04-03T10:36:36;2.65;;;1.50;;
77304;SDS011;66364;52.622;7.746;2023-04-03T10:40:54;3.85;;;1.55;;
77304;SDS011;66364;52.622;7.746;2023-04-03T10:43:02;1.90;;;0.90;;
77304;SDS011;66364;52.622;7.746;2023-04-03T10:45:20;3.25;;;1.85;;
77304;SDS011;66364;52.622;7.746;2023-04-03T10:51:48;2.25;;;1.30;;
77304;SDS011;66364;52.622;7.746;2023-04-03T10:54:05;3.17;;;1.40;;
77304;SDS011;66364;52.622;7.746;2023-04-03T10:58:43;2.15;;;1.20;;
77304;SDS011;66364;52.622;7.746;2023-04-03T11:00:47;3.80;;;1.00;;
77304;SDS011;66364;52.622;7.746;2023-04-03T11:02:54;2.05;;;0.90;;
77304;SDS011;66364;52.622;7.746;2023-04-03T11:05:02;5.10;;;2.37;;
77304;SDS011;66364;52.622;7.746;2023-04-03T11:11:29;2.35;;;1.00;;
77304;SDS011;66364;52.622;7.746;2023-04-03T11:15:48;4.33;;;1.37;;
77304;SDS011;66364;52.622;7.746;2023-04-03T11:18:17;3.15;;;1.32;;
77304;SDS011;66364;52.622;7.746;2023-04-03T11:22:41;1.65;;;0.98;;
77304;SDS011;66364;52.622;7.746;2023-04-03T11:27:15;2.92;;;0.90;;
77304;SDS011;66364;52.622;7.746;2023-04-03T11:29:20;1.92;;;1.10;;
77304;SDS011;66364;52.622;7.746;2023-04-03T11:31:39;2.65;;;1.25;;
77304;SDS011;66364;52.622;7.746;2023-04-03T11:38:21;1.92;;;1.30;;
77304;SDS011;66364;52.622;7.746;2023-04-03T11:44:43;3.25;;;0.90;;
77304;SDS011;66364;52.622;7.746;2023-04-03T11:46:57;2.58;;;1.20;;
77304;SDS011;66364;52.622;7.746;2023-04-03T11:48:59;1.90;;;1.17;;
77304;SDS011;66364;52.622;7.746;2023-04-03T12:02:54;3.58;;;1.30;;
77304;SDS011;66364;52.622;7.746;2023-04-03T12:07:34;1.70;;;1.60;;
77304;SDS011;66364;52.622;7.746;2023-04-03T12:14:33;2.40;;;1.20;;
77304;SDS011;66364;52.622;7.746;2023-04-03T12:18:41;3.55;;;1.50;;
77304;SDS011;66364;52.622;7.746;2023-04-03T12:20:54;1.42;;;1.10;;
77304;SDS011;66364;52.622;7.746;2023-04-03T12:25:40;2.70;;;1.30;;
77304;SDS011;66364;52.622;7.746;2023-04-03T12:27:38;2.05;;;0.98;;
77304;SDS011;66364;52.622;7.746;2023-04-03T12:29:53;1.85;;;0.98;;
77304;SDS011;66364;52.622;7.746;2023-04-03T12:36:50;2.00;;;1.12;;
77304;SDS011;66364;52.622;7.746;2023-04-03T12:38:58;3.05;;;0.72;;
77304;SDS011;66364;52.622;7.746;2023-04-03T12:48:18;1.45;;;0.80;;
77304;SDS011;66364;52.622;7.746;2023-04-03T12:50:27;2.08;;;0.95;;
77304;SDS011;66364;52.622;7.746;2023-04-03T12:52:35;2.47;;;1.27;;
77304;SDS011;66364;52.622;7.746;2023-04-03T12:54:41;1.70;;;0.90;;
77304;SDS011;66364;52.622;7.746;2023-04-03T12:56:40;5.33;;;1.00;;
77304;SDS011;66364;52.622;7.746;2023-04-03T12:58:41;4.45;;;1.30;;
77304;SDS011;66364;52.622;7.746;2023-04-03T13:00:42;3.72;;;1.10;;
77304;SDS011;66364;52.622;7.746;2023-04-03T13:02:43;1.57;;;1.05;;
77304;SDS011;66364;52.622;7.746;2023-04-03T13:04:45;2.25;;;1.00;;
77304;SDS011;66364;52.622;7.746;2023-04-03T13:06:48;1.17;;;0.88;;
77304;SDS011;66364;52.622;7.746;2023-04-03T13:08:58;1.82;;;0.90;;
77304;SDS011;66364;52.622;7.746;2023-04-03T13:11:05;3.52;;;1.10;;
77304;SDS011;66364;52.622;7.746;2023-04-03T13:13:09;3.40;;;1.62;;
77304;SDS011;66364;52.622;7.746;2023-04-03T13:15:13;2.50;;;1.30;;
77304;SDS011;66364;52.622;7.746;2023-04-03T13:17:17;3.55;;;1.25;;
77304;SDS011;66364;52.622;7.746;2023-04-03T13:19:18;2.25;;;0.93;;
77304;SDS011;66364;52.622;7.746;2023-04-03T13:21:29;2.13;;;1.13;;
77304;SDS011;66364;52.622;7.746;2023-04-03T13:23:34;5.47;;;1.10;;
77304;SDS011;66364;52.622;7.746;2023-04-03T13:25:40;1.75;;;1.27;;
77304;SDS011;66364;52.622;7.746;2023-04-03T13:27:41;4.08;;;1.52;;
77304;SDS011;66364;52.622;7.746;2023-04-03T13:29:43;2.60;;;1.17;;
77304;SDS011;66364;52.622;7.746;2023-04-03T13:31:47;3.50;;;1.87;;
77304;SDS011;66364;52.622;7.746;2023-04-03T13:36:07;1.20;;;0.80;;
77304;SDS011;66364;52.622;7.746;2023-04-03T13:38:24;2.25;;;0.90;;
77304;SDS011;66364;52.622;7.746;2023-04-03T13:40:25;1.98;;;1.25;;
77304;SDS011;66364;52.622;7.746;2023-04-03T13:42:27;3.60;;;1.10;;
77304;SDS011;66364;52.622;7.746;2023-04-03T13:44:35;1.95;;;1.00;;
77304;SDS011;66364;52.622;7.746;2023-04-03T13:46:35;2.15;;;0.90;;
77304;SDS011;66364;52.622;7.746;2023-04-03T13:48:44;2.15;;;1.42;;
77304;SDS011;66364;52.622;7.746;2023-04-03T13:55:19;1.45;;;0.98;;
77304;SDS011;66364;52.622;7.746;2023-04-03T13:57:27;3.15;;;1.45;;
77304;SDS011;66364;52.622;7.746;2023-04-03T13:59:47;3.22;;;1.00;;
77304;SDS011;66364;52.622;7.746;2023-04-03T14:02:09;4.20;;;1.60;;
77304;SDS011;66364;52.622;7.746;2023-04-03T14:04:20;5.50;;;2.12;;
77304;SDS011;66364;52.622;7.746;2023-04-03T14:06:21;1.52;;;1.20;;
77304;SDS011;66364;52.622;7.746;2023-04-03T14:08:22;1.77;;;1.20;;